createdAt,value
2023-12-14T00:01:20.894Z,99349.86
2023-12-14T00:03:48.423Z,99344.67
2023-12-14T00:06:15.983Z,99344.02
2023-12-14T00:08:43.485Z,99340.77
2023-12-14T00:11:12.233Z,99337.11
2023-12-14T00:13:40.054Z,99335.73
2023-12-14T00:16:08.644Z,99331.30
2023-12-14T00:18:37.111Z,99331.85
2023-12-14T00:21:04.977Z,99329.98
2023-12-14T00:23:32.356Z,99326.21
2023-12-14T00:25:59.720Z,99323.98
2023-12-14T00:28:29.591Z,99323.00
2023-12-14T00:30:58.622Z,99324.67
2023-12-14T00:33:26.213Z,99325.55
2023-12-14T00:35:53.817Z,99320.05
2023-12-14T00:38:21.369Z,99319.20
2023-12-14T00:40:48.943Z,99308.13
2023-12-14T00:43:16.953Z,99302.25
2023-12-14T00:45:44.937Z,99298.96
2023-12-14T00:48:12.445Z,99295.48
2023-12-14T00:50:39.863Z,99294.63
2023-12-14T00:53:07.271Z,99292.61
2023-12-14T00:55:34.852Z,99294.38
2023-12-14T00:58:02.271Z,99290.61
2023-12-14T01:00:30.174Z,99287.17
2023-12-14T01:02:57.538Z,99278.35
2023-12-14T01:05:25.149Z,99280.58
2023-12-14T01:07:52.583Z,99281.13
2023-12-14T01:10:19.927Z,99277.52
2023-12-14T01:12:47.288Z,99272.20
2023-12-14T01:15:15.475Z,99274.65
2023-12-14T01:17:43.000Z,99276.34
2023-12-14T01:20:11.145Z,99278.05
2023-12-14T01:22:38.744Z,99277.31
2023-12-14T01:25:06.533Z,99271.45
2023-12-14T01:27:33.866Z,99263.64
2023-12-14T01:30:01.205Z,99254.84
2023-12-14T01:32:28.524Z,99240.00
2023-12-14T01:34:55.911Z,99244.02
2023-12-14T01:37:23.281Z,99238.36
2023-12-14T01:39:50.616Z,99234.27
2023-12-14T01:42:17.948Z,99223.01
2023-12-14T01:44:45.369Z,99219.20
2023-12-14T01:47:12.808Z,99214.55
2023-12-14T01:49:42.586Z,99207.63
2023-12-14T01:52:10.152Z,99205.52
2023-12-14T01:54:37.864Z,99204.17
2023-12-14T01:57:05.388Z,99203.88
2023-12-14T01:59:32.760Z,99200.39
2023-12-14T02:02:00.665Z,99194.36
2023-12-14T02:04:28.337Z,99183.19
2023-12-14T02:06:55.812Z,99177.20
2023-12-14T02:09:23.157Z,99169.81
2023-12-14T02:11:50.713Z,99164.45
2023-12-14T02:14:18.370Z,99157.21
2023-12-14T02:16:46.219Z,99154.61
2023-12-14T02:19:13.866Z,99148.89
2023-12-14T02:21:41.258Z,99144.55
2023-12-14T02:24:08.675Z,99140.00
2023-12-14T02:26:36.048Z,99137.36
2023-12-14T02:29:03.445Z,99136.33
2023-12-14T02:31:30.937Z,99134.75
2023-12-14T02:33:58.480Z,99134.94
2023-12-14T02:36:25.821Z,99128.55
2023-12-14T02:38:53.307Z,99128.71
2023-12-14T02:41:20.782Z,99124.00
2023-12-14T02:43:48.154Z,99125.00
2023-12-14T02:46:16.843Z,99127.25
2023-12-14T02:48:44.786Z,99127.08
2023-12-14T02:51:16.105Z,99126.35
2023-12-14T02:53:43.718Z,99128.42
2023-12-14T02:56:12.174Z,99121.29
2023-12-14T02:58:40.006Z,99117.61
2023-12-14T03:01:07.686Z,99116.52
2023-12-14T03:03:35.293Z,99112.73
2023-12-14T03:06:02.878Z,99108.79
2023-12-14T03:08:30.438Z,99108.77
2023-12-14T03:10:58.548Z,99106.83
2023-12-14T03:13:26.079Z,99104.56
2023-12-14T03:15:53.975Z,99104.90
2023-12-14T03:18:21.628Z,99097.42
2023-12-14T03:20:49.000Z,99097.38
2023-12-14T03:23:16.407Z,99088.67
2023-12-14T03:25:43.917Z,99089.55
2023-12-14T03:28:11.375Z,99081.80
2023-12-14T03:30:38.747Z,99080.09
2023-12-14T03:33:08.246Z,99077.71
2023-12-14T03:35:37.107Z,99075.27
2023-12-14T03:38:04.523Z,99073.14
2023-12-14T03:40:32.075Z,99064.61
2023-12-14T03:42:59.635Z,99071.05
2023-12-14T03:45:27.158Z,99066.74
2023-12-14T03:47:54.597Z,99069.52
2023-12-14T03:50:22.030Z,99060.14
2023-12-14T03:52:49.576Z,99061.71
2023-12-14T03:55:17.174Z,99063.92
2023-12-14T03:57:44.571Z,99057.83
2023-12-14T04:00:13.890Z,99052.12
2023-12-14T04:02:41.487Z,99052.14
2023-12-14T04:05:11.804Z,99048.20
2023-12-14T04:07:41.960Z,99048.38
2023-12-14T04:10:10.497Z,99045.64
2023-12-14T04:12:38.250Z,99048.39
2023-12-14T04:15:07.190Z,99048.20
2023-12-14T04:17:34.829Z,99046.42
2023-12-14T04:20:02.487Z,99040.71
2023-12-14T04:22:30.072Z,99043.85
2023-12-14T04:24:57.451Z,99036.74
2023-12-14T04:27:30.052Z,99030.00
2023-12-14T04:29:57.466Z,99027.77
2023-12-14T04:32:24.782Z,99026.88
2023-12-14T04:34:52.385Z,99025.45
2023-12-14T04:37:19.788Z,99027.33
2023-12-14T04:39:47.154Z,99022.14
2023-12-14T04:42:14.496Z,99020.14
2023-12-14T04:44:41.937Z,99017.29
2023-12-14T04:47:09.724Z,99018.82
2023-12-14T04:49:37.275Z,99014.52
2023-12-14T04:52:05.369Z,99010.39
2023-12-14T04:54:32.965Z,99010.20
2023-12-14T04:57:00.304Z,99007.36
2023-12-14T04:59:27.658Z,99002.27
2023-12-14T05:01:55.080Z,99000.67
2023-12-14T05:04:22.449Z,98999.98
2023-12-14T05:06:49.803Z,98995.33
2023-12-14T05:09:17.160Z,98992.04
2023-12-14T05:11:44.586Z,98985.99
2023-12-14T05:14:11.994Z,98981.67
2023-12-14T05:16:40.530Z,98979.56
2023-12-14T05:19:08.275Z,98975.23
2023-12-14T05:21:35.703Z,98972.83
2023-12-14T05:24:04.047Z,98972.70
2023-12-14T05:26:31.457Z,98967.23
2023-12-14T05:28:58.845Z,98970.04
2023-12-14T05:31:26.177Z,98965.86
2023-12-14T05:33:53.682Z,98964.77
2023-12-14T05:36:21.137Z,98959.86
2023-12-14T05:38:48.495Z,98957.95
2023-12-14T05:41:16.847Z,98955.50
2023-12-14T05:43:44.334Z,98953.96
2023-12-14T05:46:21.966Z,98949.97
2023-12-14T05:48:50.760Z,98947.55
2023-12-14T05:51:31.349Z,98944.64
2023-12-14T05:53:58.977Z,98942.72
2023-12-14T05:56:26.842Z,98939.75
2023-12-14T05:58:54.250Z,98942.96
2023-12-14T06:01:21.750Z,98944.49
2023-12-14T06:03:49.415Z,98946.54
2023-12-14T06:06:17.064Z,98944.08
2023-12-14T06:08:44.583Z,98943.36
2023-12-14T06:11:12.020Z,98942.30
2023-12-14T06:13:39.809Z,98936.57
2023-12-14T06:16:13.544Z,98934.99
2023-12-14T06:18:43.236Z,98936.89
2023-12-14T06:21:12.358Z,98934.66
2023-12-14T06:23:39.736Z,98934.09
2023-12-14T06:26:07.487Z,98938.23
2023-12-14T06:28:35.073Z,98933.22
2023-12-14T06:31:02.785Z,98926.45
2023-12-14T06:33:30.798Z,98925.72
2023-12-14T06:35:58.986Z,98921.80
2023-12-14T06:38:26.354Z,98921.91
2023-12-14T06:40:55.146Z,98920.35
2023-12-14T06:43:22.541Z,98916.09
2023-12-14T06:45:49.864Z,98915.84
2023-12-14T06:48:17.375Z,98910.08
2023-12-14T06:50:47.340Z,98906.17
2023-12-14T06:53:17.204Z,98909.98
2023-12-14T06:55:44.814Z,98906.88
2023-12-14T06:58:12.895Z,98900.04
2023-12-14T07:00:40.380Z,98896.33
2023-12-14T07:03:07.800Z,98896.09
2023-12-14T07:05:35.821Z,98898.54
2023-12-14T07:08:03.387Z,98893.63
2023-12-14T07:10:30.886Z,98891.54
2023-12-14T07:12:59.928Z,98886.47
2023-12-14T07:15:27.839Z,98880.71
2023-12-14T07:17:55.476Z,98877.55
2023-12-14T07:20:23.148Z,98875.93
2023-12-14T07:22:50.561Z,98872.05
2023-12-14T07:25:18.020Z,98870.23
2023-12-14T07:27:47.650Z,98873.27
2023-12-14T07:30:15.270Z,98870.70
2023-12-14T07:32:42.679Z,98864.40
2023-12-14T07:35:11.502Z,98863.40
2023-12-14T07:37:38.971Z,98870.30
2023-12-14T07:40:07.188Z,98867.02
2023-12-14T07:42:34.839Z,98866.54
2023-12-14T07:45:02.417Z,98865.69
2023-12-14T07:47:29.878Z,98859.02
2023-12-14T07:49:57.413Z,98855.52
2023-12-14T07:52:24.790Z,98863.89
2023-12-14T07:54:52.137Z,98861.75
2023-12-14T07:57:19.657Z,98857.64
2023-12-14T07:59:47.689Z,98862.34
2023-12-14T08:02:15.134Z,98866.73
2023-12-14T08:04:42.612Z,98856.39
2023-12-14T08:07:10.040Z,98850.33
2023-12-14T08:09:37.441Z,98852.96
2023-12-14T08:12:05.441Z,98848.80
2023-12-14T08:14:36.152Z,98840.10
2023-12-14T08:17:04.049Z,98832.76
2023-12-14T08:19:31.639Z,98829.77
2023-12-14T08:21:59.100Z,98818.75
2023-12-14T08:24:26.452Z,98813.78
2023-12-14T08:26:54.061Z,98813.06
2023-12-14T08:29:21.615Z,98813.33
2023-12-14T08:31:49.178Z,98810.59
2023-12-14T08:34:16.676Z,98802.08
2023-12-14T08:36:44.248Z,98799.66
2023-12-14T08:39:11.641Z,98805.09
2023-12-14T08:41:39.016Z,98813.94
2023-12-14T08:44:06.391Z,98810.11
2023-12-14T08:46:44.801Z,98814.83
2023-12-14T08:49:13.023Z,98805.85
2023-12-14T08:51:40.649Z,98807.38
2023-12-14T08:54:08.611Z,98805.33
2023-12-14T08:56:36.549Z,98787.52
2023-12-14T08:59:05.268Z,98786.27
2023-12-14T09:01:33.160Z,98776.40
2023-12-14T09:04:01.343Z,98777.10
2023-12-14T09:06:28.849Z,98773.73
2023-12-14T09:08:56.363Z,98776.90
2023-12-14T09:11:23.788Z,98768.70
2023-12-14T09:13:52.068Z,98770.63
2023-12-14T09:16:20.421Z,98774.89
2023-12-14T09:18:48.160Z,98765.50
2023-12-14T09:21:16.201Z,98756.55
2023-12-14T09:23:43.707Z,98749.28
2023-12-14T09:26:11.810Z,98745.85
2023-12-14T09:28:40.542Z,98753.31
2023-12-14T09:31:09.367Z,98754.00
2023-12-14T09:33:37.316Z,98755.70
2023-12-14T09:36:05.373Z,98758.40
2023-12-14T09:38:32.818Z,98748.72
2023-12-14T09:41:00.251Z,98734.58
2023-12-14T09:43:27.641Z,98737.44
2023-12-14T09:45:56.115Z,98743.27
2023-12-14T09:48:23.778Z,98742.28
2023-12-14T09:50:51.221Z,98731.20
2023-12-14T09:53:19.708Z,98716.42
2023-12-14T09:55:47.525Z,98718.02
2023-12-14T09:58:15.237Z,98725.27
2023-12-14T10:00:42.797Z,98730.81
2023-12-14T10:03:27.664Z,98730.59
2023-12-14T10:05:59.395Z,98718.90
2023-12-14T10:08:27.378Z,98728.64
2023-12-14T10:10:56.411Z,98726.58
2023-12-14T10:13:38.412Z,98725.40
2023-12-14T10:16:06.875Z,98730.12
2023-12-14T10:18:37.840Z,98722.06
2023-12-14T10:21:08.151Z,98718.32
2023-12-14T10:23:36.273Z,98722.20
2023-12-14T10:26:05.913Z,98711.67
2023-12-14T10:28:33.667Z,98713.77
2023-12-14T10:31:01.157Z,98715.61
2023-12-14T10:33:28.823Z,98718.31
2023-12-14T10:35:56.511Z,98711.75
2023-12-14T10:38:24.036Z,98706.00
2023-12-14T10:40:52.509Z,98697.67
2023-12-14T10:45:50.384Z,98678.21
2023-12-14T10:48:21.764Z,98669.64
2023-12-14T10:50:49.723Z,98658.97
2023-12-14T10:53:17.183Z,98648.63
2023-12-14T10:55:45.213Z,98645.71
2023-12-14T10:58:12.865Z,98651.83
2023-12-14T11:00:40.437Z,98656.02
2023-12-14T11:03:08.144Z,98656.57
2023-12-14T11:05:36.200Z,98656.06
2023-12-14T11:08:10.476Z,98659.04
2023-12-14T11:10:45.845Z,98656.50
2023-12-14T11:13:16.061Z,98652.73
2023-12-14T11:15:53.395Z,98663.55
2023-12-14T11:18:23.968Z,98657.36
2023-12-14T11:20:56.049Z,98653.77
2023-12-14T11:23:26.501Z,98652.45
2023-12-14T11:25:58.121Z,98648.50
2023-12-14T11:28:32.095Z,98645.67
2023-12-14T11:31:00.002Z,98646.98
2023-12-14T11:33:29.978Z,98653.25
2023-12-14T11:35:58.333Z,98660.73
2023-12-14T11:38:25.906Z,98659.23
2023-12-14T11:40:53.653Z,98661.70
2023-12-14T11:43:26.203Z,98661.99
2023-12-14T11:45:55.544Z,98657.36
2023-12-14T11:48:23.386Z,98651.98
2023-12-14T11:50:50.917Z,98654.08
2023-12-14T11:53:18.612Z,98659.09
2023-12-14T11:55:46.081Z,98665.17
2023-12-14T11:58:17.089Z,98661.20
2023-12-14T12:00:45.742Z,98659.34
2023-12-14T12:03:17.983Z,98659.40
2023-12-14T12:05:49.919Z,98662.28
2023-12-14T12:08:20.453Z,98666.05
2023-12-14T12:10:48.706Z,98672.83
2023-12-14T12:13:17.880Z,98669.58
2023-12-14T12:15:46.063Z,98667.28
2023-12-14T12:18:14.877Z,98667.64
2023-12-14T12:20:42.450Z,98670.74
2023-12-14T12:23:10.004Z,98671.75
2023-12-14T12:25:37.552Z,98669.77
2023-12-14T12:28:05.518Z,98680.44
2023-12-14T12:30:33.266Z,98686.29
2023-12-14T12:33:01.014Z,98683.86
2023-12-14T12:35:31.287Z,98687.77
2023-12-14T12:37:58.705Z,98686.60
2023-12-14T12:40:31.235Z,98686.14
2023-12-14T12:42:58.629Z,98690.38
2023-12-14T12:45:29.518Z,98683.63
2023-12-14T12:47:57.786Z,98687.59
2023-12-14T12:50:25.541Z,98682.73
2023-12-14T12:52:53.069Z,98681.05
2023-12-14T12:55:20.540Z,98686.14
2023-12-14T12:57:49.303Z,98683.67
2023-12-14T13:00:17.210Z,98690.52
2023-12-14T13:02:46.205Z,98694.44
2023-12-14T13:05:16.301Z,98692.81
2023-12-14T13:07:46.556Z,98703.06
2023-12-14T13:10:25.091Z,98696.59
2023-12-14T13:12:57.768Z,98701.67
2023-12-14T13:15:27.207Z,98709.86
2023-12-14T13:17:55.298Z,98716.33
2023-12-14T13:20:23.295Z,98716.92
2023-12-14T13:22:51.483Z,98726.73
2023-12-14T13:25:18.953Z,98722.66
2023-12-14T13:27:46.496Z,98723.85
2023-12-14T13:30:18.750Z,98732.27
2023-12-14T13:32:47.028Z,98735.43
2023-12-14T13:35:14.930Z,98734.45
2023-12-14T13:37:42.749Z,98735.86
2023-12-14T13:40:13.758Z,98742.74
2023-12-14T13:42:50.852Z,98743.37
2023-12-14T13:45:31.653Z,98738.71
2023-12-14T13:48:00.239Z,98740.85
2023-12-14T13:50:29.068Z,98740.55
2023-12-14T13:52:57.378Z,98745.83
2023-12-14T13:55:24.948Z,98755.02
2023-12-14T13:57:52.645Z,98755.55
2023-12-14T14:00:21.041Z,98763.50
2023-12-14T14:02:48.400Z,98766.18
2023-12-14T14:05:16.151Z,98768.92
2023-12-14T14:07:43.741Z,98773.60
2023-12-14T14:10:11.395Z,98776.77
2023-12-14T14:12:39.405Z,98779.38
2023-12-14T14:15:08.468Z,98783.56
2023-12-14T14:17:36.244Z,98789.74
2023-12-14T14:20:04.443Z,98796.42
2023-12-14T14:22:32.129Z,98796.20
2023-12-14T14:24:59.595Z,98799.30
2023-12-14T14:27:27.224Z,98793.73
2023-12-14T14:29:56.893Z,98788.73
2023-12-14T14:32:24.448Z,98795.88
2023-12-14T14:34:52.337Z,98805.52
2023-12-14T14:37:20.363Z,98811.45
2023-12-14T14:39:48.712Z,98825.23
2023-12-14T14:42:16.238Z,98831.17
2023-12-14T14:44:43.645Z,98829.75
2023-12-14T14:47:11.186Z,98841.05
2023-12-14T14:49:38.569Z,98846.60
2023-12-14T14:52:06.273Z,98847.66
2023-12-14T14:54:33.649Z,98840.67
2023-12-14T14:57:02.863Z,98837.90
2023-12-14T14:59:31.723Z,98833.88
2023-12-14T15:02:01.380Z,98837.83
2023-12-14T15:04:28.830Z,98842.08
2023-12-14T15:06:56.653Z,98839.76
2023-12-14T15:09:24.100Z,98839.17
2023-12-14T15:11:51.598Z,98837.61
2023-12-14T15:14:19.747Z,98845.78
2023-12-14T15:16:47.961Z,98849.19
2023-12-14T15:19:15.751Z,98846.93
2023-12-14T15:21:43.577Z,98854.43
2023-12-14T15:24:10.992Z,98860.84
2023-12-14T15:26:38.478Z,98866.65
2023-12-14T15:29:05.996Z,98868.78
2023-12-14T15:31:33.767Z,98873.30
2023-12-14T15:34:02.530Z,98878.79
2023-12-14T15:36:31.178Z,98882.55
2023-12-14T15:39:00.487Z,98881.41
2023-12-14T15:41:29.853Z,98890.80
2023-12-14T15:43:57.400Z,98892.92
2023-12-14T15:46:24.808Z,98894.60
2023-12-14T15:48:52.216Z,98905.10
2023-12-14T15:51:19.643Z,98911.11
2023-12-14T15:53:47.076Z,98912.93
2023-12-14T15:56:15.684Z,98919.90
2023-12-14T15:58:43.309Z,98921.26
2023-12-14T16:01:11.746Z,98922.39
2023-12-14T16:03:39.120Z,98932.81
2023-12-14T16:06:07.103Z,98937.50
2023-12-14T16:08:36.251Z,98947.81
2023-12-14T16:11:03.992Z,98948.61
2023-12-14T16:13:31.390Z,98954.52
2023-12-14T16:15:59.306Z,98963.48
2023-12-14T16:18:26.993Z,98969.09
2023-12-14T16:20:55.227Z,98972.13
2023-12-14T16:23:22.666Z,98975.50
2023-12-14T16:25:50.873Z,98984.00
2023-12-14T16:28:21.287Z,98992.93
2023-12-14T16:30:48.782Z,98997.79
2023-12-14T16:33:16.320Z,99002.98
2023-12-14T16:35:43.814Z,99011.43
2023-12-14T16:38:11.376Z,99018.13
2023-12-14T16:40:38.815Z,99024.56
2023-12-14T16:43:06.239Z,99029.82
2023-12-14T16:45:33.587Z,99032.13
2023-12-14T16:48:01.688Z,99039.00
2023-12-14T16:50:29.549Z,99044.29
2023-12-14T16:52:57.047Z,99045.16
2023-12-14T16:55:25.090Z,99044.14
2023-12-14T16:57:52.588Z,99048.91
2023-12-14T17:00:20.109Z,99051.77
2023-12-14T17:02:48.225Z,99054.20
2023-12-14T17:05:15.787Z,99055.73
2023-12-14T17:07:43.202Z,99062.89
2023-12-14T17:10:10.629Z,99063.98
2023-12-14T17:12:38.585Z,99073.95
2023-12-14T17:15:09.908Z,99073.34
2023-12-14T17:17:37.498Z,99080.14
2023-12-14T17:20:05.646Z,99083.60
2023-12-14T17:22:37.233Z,99088.95
2023-12-14T17:25:05.307Z,99097.67
2023-12-14T17:27:33.852Z,99105.92
2023-12-14T17:30:01.396Z,99110.52
2023-12-14T17:32:29.181Z,99118.91
2023-12-14T17:34:56.858Z,99121.71
2023-12-14T17:37:24.371Z,99123.59
2023-12-14T17:39:51.997Z,99126.38
2023-12-14T17:42:20.363Z,99128.96
2023-12-14T17:44:48.167Z,99129.13
2023-12-14T17:47:15.621Z,99133.91
2023-12-14T17:49:43.078Z,99138.59
2023-12-14T17:52:10.486Z,99143.38
2023-12-14T17:54:38.978Z,99148.09
2023-12-14T17:57:06.686Z,99152.33
2023-12-14T17:59:34.407Z,99155.46
2023-12-14T18:02:01.840Z,99156.64
2023-12-14T18:04:29.276Z,99160.92
2023-12-14T18:06:56.616Z,99165.05
2023-12-14T18:09:24.037Z,99172.54
2023-12-14T18:11:51.385Z,99177.75
2023-12-14T18:14:18.881Z,99181.02
2023-12-14T18:16:46.957Z,99187.39
2023-12-14T18:19:15.052Z,99192.09
2023-12-14T18:21:42.745Z,99188.42
2023-12-14T18:24:10.451Z,99198.67
2023-12-14T18:26:37.947Z,99204.65
2023-12-14T18:29:05.407Z,99211.33
2023-12-14T18:31:34.488Z,99219.70
2023-12-14T18:34:02.144Z,99222.81
2023-12-14T18:36:29.607Z,99228.39
2023-12-14T18:38:57.121Z,99232.38
2023-12-14T18:41:25.165Z,99235.50
2023-12-14T18:43:53.158Z,99238.84
2023-12-14T18:46:20.683Z,99245.10
2023-12-14T18:48:48.094Z,99250.77
2023-12-14T18:51:15.724Z,99256.25
2023-12-14T18:53:43.141Z,99265.49
2023-12-14T18:56:10.657Z,99272.48
2023-12-14T18:58:38.097Z,99272.42
2023-12-14T19:01:06.443Z,99274.11
2023-12-14T19:03:36.556Z,99275.77
2023-12-14T19:06:10.467Z,99280.92
2023-12-14T19:08:41.864Z,99287.73
2023-12-14T19:11:19.560Z,99294.33
2023-12-14T19:13:47.581Z,99304.17
2023-12-14T19:16:24.242Z,99311.61
2023-12-14T19:18:51.831Z,99318.40
2023-12-14T19:21:20.334Z,99322.92
2023-12-14T19:23:48.147Z,99320.62
2023-12-14T19:26:22.636Z,99322.65
2023-12-14T19:28:50.990Z,99328.35
2023-12-14T19:31:20.326Z,99335.11
2023-12-14T19:33:48.356Z,99344.77
2023-12-14T19:36:15.972Z,99347.64
2023-12-14T19:38:44.971Z,99353.42
2023-12-14T19:41:14.146Z,99356.15
2023-12-14T19:43:46.124Z,99364.05
2023-12-14T19:46:17.086Z,99364.17
2023-12-14T19:48:45.351Z,99363.33
2023-12-14T19:51:15.466Z,99373.84
2023-12-14T19:53:52.680Z,99375.18
2023-12-14T19:56:26.421Z,99383.74
2023-12-14T19:59:00.408Z,99386.57
2023-12-14T20:01:45.015Z,99391.58
2023-12-14T20:04:14.910Z,99395.70
2023-12-14T20:06:59.374Z,99397.59
2023-12-14T20:09:27.012Z,99393.49
2023-12-14T20:11:54.937Z,99401.51
2023-12-14T20:14:22.992Z,99397.92
2023-12-14T20:16:51.842Z,99397.08
2023-12-14T20:19:19.621Z,99400.25
2023-12-14T20:21:47.102Z,99398.26
2023-12-14T20:24:14.577Z,99399.16
2023-12-14T20:26:41.988Z,99399.74
2023-12-14T20:29:09.589Z,99403.09
2023-12-14T20:31:37.130Z,99410.17
2023-12-14T20:34:04.788Z,99423.15
2023-12-14T20:36:34.832Z,99433.90
2023-12-14T20:39:04.474Z,99443.09
2023-12-14T20:41:32.088Z,99451.38
2023-12-14T20:43:59.555Z,99454.48
2023-12-14T20:46:26.942Z,99459.94
2023-12-14T20:48:54.438Z,99464.08
2023-12-14T20:51:23.814Z,99473.39
2023-12-14T20:53:51.244Z,99482.89
2023-12-14T20:56:18.669Z,99490.00
2023-12-14T20:58:46.332Z,99501.08
2023-12-14T21:01:13.774Z,99503.69
2023-12-14T21:03:43.420Z,99512.66
2023-12-14T21:06:11.004Z,99517.67
2023-12-14T21:08:38.591Z,99524.63
2023-12-14T21:11:06.894Z,99529.49
2023-12-14T21:13:35.491Z,99528.62
2023-12-14T21:16:03.605Z,99523.95
2023-12-14T21:18:31.311Z,99523.27
2023-12-14T21:20:58.874Z,99522.63
2023-12-14T21:23:26.390Z,99521.61
2023-12-14T21:26:04.815Z,99518.73
2023-12-14T21:28:32.473Z,99521.55
2023-12-14T21:31:00.103Z,99525.06
2023-12-14T21:33:28.758Z,99523.19
2023-12-14T21:35:56.640Z,99526.20
2023-12-14T21:38:24.087Z,99533.00
2023-12-14T21:40:51.545Z,99536.83
2023-12-14T21:43:20.735Z,99551.35
2023-12-14T21:45:48.114Z,99555.81
2023-12-14T21:48:16.488Z,99559.40
2023-12-14T21:50:43.911Z,99566.67
2023-12-14T21:53:11.423Z,99572.64
2023-12-14T21:55:38.786Z,99577.20
2023-12-14T21:58:06.220Z,99581.91
2023-12-14T22:00:33.626Z,99587.50
2023-12-14T22:03:01.065Z,99593.23
2023-12-14T22:05:28.669Z,99599.32
2023-12-14T22:07:56.215Z,99609.03
2023-12-14T22:10:23.843Z,99609.56
2023-12-14T22:12:51.155Z,99615.13
2023-12-14T22:15:19.118Z,99617.79
2023-12-14T22:17:47.863Z,99621.83
2023-12-14T22:20:15.380Z,99631.55
2023-12-14T22:22:42.794Z,99645.93
2023-12-14T22:25:10.243Z,99659.77
2023-12-14T22:27:37.905Z,99663.23
2023-12-14T22:30:08.761Z,99667.73
2023-12-14T22:32:36.349Z,99668.46
2023-12-14T22:35:03.942Z,99668.46
2023-12-14T22:37:31.458Z,99668.95
2023-12-14T22:39:58.839Z,99673.40
2023-12-14T22:42:26.273Z,99668.02
2023-12-14T22:44:53.626Z,99665.59
2023-12-14T22:47:20.978Z,99667.11
2023-12-14T22:49:48.607Z,99660.90
2023-12-14T22:52:16.128Z,99665.02
2023-12-14T22:54:43.481Z,99671.88
2023-12-14T22:57:10.840Z,99675.46
2023-12-14T22:59:40.024Z,99683.20
2023-12-14T23:02:07.518Z,99686.30
2023-12-14T23:04:35.265Z,99687.16
2023-12-14T23:07:03.310Z,99679.59
2023-12-14T23:09:30.781Z,99680.48
2023-12-14T23:11:59.290Z,99679.11
2023-12-14T23:14:26.705Z,99674.47
2023-12-14T23:16:54.548Z,99679.31
2023-12-14T23:19:22.104Z,99684.86
2023-12-14T23:21:49.509Z,99695.61
2023-12-14T23:24:16.918Z,99703.05
2023-12-14T23:26:44.341Z,99709.09
2023-12-14T23:29:11.785Z,99706.48
2023-12-14T23:31:39.122Z,99706.11
2023-12-14T23:34:06.490Z,99699.91
2023-12-14T23:36:33.961Z,99708.02
2023-12-14T23:39:01.473Z,99712.50
2023-12-14T23:41:28.880Z,99715.42
2023-12-14T23:43:56.621Z,99713.33
2023-12-14T23:46:24.081Z,99710.20
2023-12-14T23:48:51.635Z,99714.81
2023-12-14T23:51:18.994Z,99713.06
2023-12-14T23:53:46.430Z,99715.30
2023-12-14T23:56:13.891Z,99722.02
2023-12-14T23:58:41.240Z,99729.63
